Time,TemperatureF,DewpointF,PressureIn,WindDirection,WindDirectionDegrees,WindSpeedMPH,WindSpeedGustMPH,Humidity,HourlyPrecipIn,Conditions,Clouds,dailyrainin,SolarRadiationWatts/m^2,SoftwareType,DateUTC
2013-02-21 00:14:00,23.0,12.0,29.68,West,276,13.0,16.0,63,0.00,,,0.00,0,weatherlink.com 1.10,2013-02-21 05:14:00,
2013-02-21 00:29:00,22.7,12.0,29.68,WSW,254,11.0,15.0,64,0.00,,,0.00,0,weatherlink.com 1.10,2013-02-21 05:29:00,
2013-02-21 00:44:00,22.7,12.0,29.68,WNW,288,9.0,19.0,64,0.00,,,0.00,0,weatherlink.com 1.10,2013-02-21 05:44:00,
2013-02-21 00:59:00,22.7,12.0,29.68,WSW,253,11.0,18.0,63,0.00,,,0.00,0,weatherlink.com 1.10,2013-02-21 05:59:00,
2013-02-21 01:14:00,22.5,12.0,29.68,West,269,15.0,18.0,63,0.00,,,0.00,0,weatherlink.com 1.10,2013-02-21 06:14:00,
2013-02-21 01:29:00,22.5,12.0,29.68,WSW,258,15.0,21.0,63,0.00,,,0.00,0,weatherlink.com 1.10,2013-02-21 06:29:00,
2013-02-21 01:44:00,22.5,11.0,29.69,WNW,286,6.0,15.0,62,0.00,,,0.00,0,weatherlink.com 1.10,2013-02-21 06:44:00,
2013-02-21 01:59:00,22.5,11.0,29.69,WSW,250,10.0,18.0,62,0.00,,,0.00,0,weatherlink.com 1.10,2013-02-21 06:59:00,
2013-02-21 02:14:00,22.5,12.0,29.68,WSW,257,7.0,16.0,63,0.00,,,0.00,0,weatherlink.com 1.10,2013-02-21 07:14:00,
2013-02-21 02:29:00,22.4,11.0,29.68,West,271,15.0,15.0,63,0.00,,,0.00,0,weatherlink.com 1.10,2013-02-21 07:29:00,
2013-02-21 02:44:00,22.4,12.0,29.69,WSW,251,10.0,20.0,64,0.00,,,0.00,0,weatherlink.com 1.10,2013-02-21 07:44:00,
2013-02-21 03:00:00,22.4,12.0,29.68,WSW,254,11.0,18.0,64,0.00,,,0.00,0,weatherlink.com 1.10,2013-02-21 08:00:00,
2013-02-21 03:15:00,22.2,12.0,29.68,West,274,4.0,18.0,64,0.00,,,0.00,0,weatherlink.com 1.10,2013-02-21 08:15:00,
2013-02-21 03:29:00,22.1,12.0,29.68,WNW,286,14.0,20.0,64,0.00,,,0.00,0,weatherlink.com 1.10,2013-02-21 08:29:00,
2013-02-21 03:44:00,21.8,12.0,29.67,West,268,5.0,19.0,65,0.00,,,0.00,0,weatherlink.com 1.10,2013-02-21 08:44:00,
2013-02-21 04:00:00,21.4,11.0,29.67,West,268,16.0,21.0,65,0.00,,,0.00,0,weatherlink.com 1.10,2013-02-21 09:00:00,
2013-02-21 04:15:00,21.4,11.0,29.68,West,271,10.0,21.0,65,0.00,,,0.00,0,weatherlink.com 1.10,2013-02-21 09:15:00,
2013-02-21 04:30:00,21.3,11.0,29.68,West,259,9.0,22.0,64,0.00,,,0.00,0,weatherlink.com 1.10,2013-02-21 09:30:00,
2013-02-21 04:45:00,21.1,11.0,29.69,West,270,13.0,21.0,64,0.00,,,0.00,0,weatherlink.com 1.10,2013-02-21 09:45:00,
2013-02-21 05:00:00,21.0,11.0,29.70,WNW,294,4.0,16.0,65,0.00,,,0.00,0,weatherlink.com 1.10,2013-02-21 10:00:00,
2013-02-21 05:15:00,20.6,10.0,29.71,West,263,1.0,11.0,65,0.00,,,0.00,0,weatherlink.com 1.10,2013-02-21 10:15:00,
2013-02-21 05:30:00,20.3,10.0,29.71,West,276,9.0,16.0,64,0.00,,,0.00,0,weatherlink.com 1.10,2013-02-21 10:30:00,
2013-02-21 05:45:00,20.2,9.0,29.72,West,277,8.0,18.0,63,0.00,,,0.00,0,weatherlink.com 1.10,2013-02-21 10:45:00,
2013-02-21 06:00:00,20.0,8.0,29.72,West,271,11.0,23.0,60,0.00,,,0.00,0,weatherlink.com 1.10,2013-02-21 11:00:00,
2013-02-21 06:15:00,19.9,7.0,29.72,West,277,18.0,23.0,58,0.00,,,0.00,0,weatherlink.com 1.10,2013-02-21 11:15:00,
2013-02-21 06:30:00,19.7,7.0,29.73,West,260,6.0,21.0,57,0.00,,,0.00,0,weatherlink.com 1.10,2013-02-21 11:30:00,
2013-02-21 06:45:00,19.7,7.0,29.73,WNW,298,8.0,20.0,57,0.00,,,0.00,7,weatherlink.com 1.10,2013-02-21 11:45:00,
2013-02-21 07:00:00,19.4,6.0,29.74,West,263,6.0,15.0,57,0.00,,,0.00,12,weatherlink.com 1.10,2013-02-21 12:00:00,
2013-02-21 07:15:00,18.9,6.0,29.73,WNW,293,11.0,19.0,58,0.00,,,0.00,32,weatherlink.com 1.10,2013-02-21 12:15:00,
2013-02-21 07:30:00,19.1,6.0,29.74,WSW,256,11.0,21.0,57,0.00,,,0.00,58,weatherlink.com 1.10,2013-02-21 12:30:00,
2013-02-21 07:45:00,19.4,6.0,29.74,NW,319,10.0,29.0,55,0.00,,,0.00,47,weatherlink.com 1.10,2013-02-21 12:45:00,
2013-02-21 08:00:00,19.2,5.0,29.74,WSW,250,19.0,28.0,55,0.00,,,0.00,42,weatherlink.com 1.10,2013-02-21 13:00:00,
2013-02-21 08:15:00,19.5,6.0,29.74,WNW,303,21.0,28.0,55,0.00,,,0.00,163,weatherlink.com 1.10,2013-02-21 13:15:00,
2013-02-21 08:30:00,20.5,6.0,29.75,West,265,9.0,25.0,53,0.00,,,0.00,281,weatherlink.com 1.10,2013-02-21 13:30:00,
2013-02-21 08:45:00,21.1,5.0,29.74,WSW,248,8.0,25.0,51,0.00,,,0.00,373,weatherlink.com 1.10,2013-02-21 13:45:00,
2013-02-21 09:00:00,21.9,5.0,29.74,West,269,12.0,27.0,49,0.00,,,0.00,417,weatherlink.com 1.10,2013-02-21 14:00:00,
2013-02-21 09:15:00,22.2,5.0,29.74,NNW,340,16.0,27.0,48,0.00,,,0.00,454,weatherlink.com 1.10,2013-02-21 14:15:00,
2013-02-21 09:30:00,22.9,5.0,29.74,WNW,287,9.0,24.0,47,0.00,,,0.00,487,weatherlink.com 1.10,2013-02-21 14:30:00,
2013-02-21 09:45:00,23.9,5.0,29.75,WNW,289,22.0,24.0,44,0.00,,,0.00,457,weatherlink.com 1.10,2013-02-21 14:45:00,
2013-02-21 10:01:00,24.2,5.0,29.76,NW,304,13.0,26.0,44,0.00,,,0.00,543,weatherlink.com 1.10,2013-02-21 15:01:00,
2013-02-21 10:16:00,23.9,5.0,29.76,WSW,255,15.0,26.0,45,0.00,,,0.00,441,weatherlink.com 1.10,2013-02-21 15:16:00,
2013-02-21 10:31:00,24.8,6.0,29.76,WNW,286,20.0,26.0,44,0.00,,,0.00,457,weatherlink.com 1.10,2013-02-21 15:31:00,
2013-02-21 10:46:00,25.0,6.0,29.76,West,266,12.0,24.0,44,0.00,,,0.00,475,weatherlink.com 1.10,2013-02-21 15:46:00,
2013-02-21 11:01:00,25.1,7.0,29.76,WNW,284,16.0,28.0,47,0.00,,,0.00,497,weatherlink.com 1.10,2013-02-21 16:01:00,
2013-02-21 11:16:00,25.0,7.0,29.76,WNW,286,15.0,25.0,46,0.00,,,0.00,555,weatherlink.com 1.10,2013-02-21 16:16:00,
2013-02-21 11:31:00,25.6,6.0,29.77,West,267,10.0,23.0,44,0.00,,,0.00,654,weatherlink.com 1.10,2013-02-21 16:31:00,
2013-02-21 11:46:00,26.1,8.0,29.76,WNW,298,11.0,24.0,46,0.00,,,0.00,635,weatherlink.com 1.10,2013-02-21 16:46:00,
2013-02-21 12:01:00,27.5,9.0,29.76,West,264,11.0,23.0,45,0.00,,,0.00,626,weatherlink.com 1.10,2013-02-21 17:01:00,
2013-02-21 12:16:00,27.8,8.0,29.77,NW,321,2.0,20.0,43,0.00,,,0.00,608,weatherlink.com 1.10,2013-02-21 17:16:00,
2013-02-21 12:31:00,28.2,8.0,29.77,West,280,18.0,23.0,43,0.00,,,0.00,624,weatherlink.com 1.10,2013-02-21 17:31:00,
2013-02-21 12:46:00,28.8,9.0,29.77,NW,306,15.0,26.0,44,0.00,,,0.00,698,weatherlink.com 1.10,2013-02-21 17:46:00,
2013-02-21 13:01:00,28.8,9.0,29.77,WNW,300,16.0,27.0,43,0.00,,,0.00,489,weatherlink.com 1.10,2013-02-21 18:01:00,
2013-02-21 13:16:00,29.3,9.0,29.78,WNW,301,9.0,26.0,42,0.00,,,0.00,531,weatherlink.com 1.10,2013-02-21 18:16:00,
2013-02-21 13:31:00,29.4,9.0,29.77,WNW,292,13.0,27.0,42,0.00,,,0.00,492,weatherlink.com 1.10,2013-02-21 18:31:00,
2013-02-21 13:46:00,29.5,9.0,29.77,West,267,24.0,27.0,43,0.00,,,0.00,503,weatherlink.com 1.10,2013-02-21 18:46:00,
2013-02-21 14:01:00,29.3,9.0,29.77,WNW,284,26.0,31.0,43,0.00,,,0.00,450,weatherlink.com 1.10,2013-02-21 19:01:00,
2013-02-21 14:16:00,28.5,9.0,29.79,NNW,331,13.0,32.0,44,0.00,,,0.00,434,weatherlink.com 1.10,2013-02-21 19:16:00,
2013-02-21 14:31:00,29.0,9.0,29.79,NNW,336,19.0,31.0,43,0.00,,,0.00,415,weatherlink.com 1.10,2013-02-21 19:31:00,
2013-02-21 14:46:00,29.0,9.0,29.80,WSW,254,18.0,31.0,44,0.00,,,0.00,432,weatherlink.com 1.10,2013-02-21 19:46:00,
2013-02-21 15:01:00,28.8,10.0,29.81,WNW,292,21.0,29.0,45,0.00,,,0.00,441,weatherlink.com 1.10,2013-02-21 20:01:00,
2013-02-21 15:16:00,29.4,10.0,29.82,NW,304,16.0,26.0,44,0.00,,,0.00,373,weatherlink.com 1.10,2013-02-21 20:16:00,
2013-02-21 15:31:00,28.5,10.0,29.82,NW,314,9.0,32.0,45,0.00,,,0.00,327,weatherlink.com 1.10,2013-02-21 20:31:00,
2013-02-21 15:46:00,28.2,10.0,29.84,WNW,296,11.0,32.0,46,0.00,,,0.00,265,weatherlink.com 1.10,2013-02-21 20:46:00,
2013-02-21 16:01:00,27.2,10.0,29.84,NW,323,16.0,37.0,48,0.00,,,0.00,220,weatherlink.com 1.10,2013-02-21 21:01:00,
2013-02-21 16:16:00,26.6,10.0,29.86,WNW,300,14.0,31.0,50,0.00,,,0.00,181,weatherlink.com 1.10,2013-02-21 21:16:00,
2013-02-21 16:31:00,26.0,10.0,29.87,NW,317,21.0,31.0,51,0.00,,,0.00,141,weatherlink.com 1.10,2013-02-21 21:31:00,
2013-02-21 16:46:00,25.7,10.0,29.89,West,262,10.0,29.0,51,0.00,,,0.00,83,weatherlink.com 1.10,2013-02-21 21:46:00,
2013-02-21 17:01:00,25.1,10.0,29.90,NW,304,11.0,26.0,52,0.00,,,0.00,39,weatherlink.com 1.10,2013-02-21 22:01:00,
2013-02-21 17:16:00,24.4,10.0,29.91,NW,325,20.0,30.0,54,0.00,,,0.00,12,weatherlink.com 1.10,2013-02-21 22:16:00,
2013-02-21 17:31:00,23.8,10.0,29.92,NW,313,16.0,27.0,55,0.00,,,0.00,0,weatherlink.com 1.10,2013-02-21 22:31:00,
2013-02-21 17:46:00,23.2,9.0,29.93,NW,315,18.0,26.0,56,0.00,,,0.00,0,weatherlink.com 1.10,2013-02-21 22:46:00,
2013-02-21 18:01:00,22.7,10.0,29.95,NW,306,9.0,24.0,58,0.00,,,0.00,0,weatherlink.com 1.10,2013-02-21 23:01:00,
2013-02-21 18:16:00,22.5,10.0,29.96,NNW,346,15.0,27.0,59,0.00,,,0.00,0,weatherlink.com 1.10,2013-02-21 23:16:00,
2013-02-21 18:32:00,22.2,10.0,29.97,NW,318,18.0,21.0,60,0.00,,,0.00,0,weatherlink.com 1.10,2013-02-21 23:32:00,
2013-02-21 18:46:00,21.9,11.0,29.98,NNW,333,22.0,24.0,62,0.00,,,0.00,0,weatherlink.com 1.10,2013-02-21 23:46:00,
2013-02-21 19:01:00,21.8,11.0,30.00,NW,318,8.0,26.0,63,0.00,,,0.00,0,weatherlink.com 1.10,2013-02-22 00:01:00,
2013-02-21 19:19:00,21.4,11.0,30.01,NNW,336,8.0,21.0,64,0.00,,,0.00,0,weatherlink.com 1.10,2013-02-22 00:19:00,
2013-02-21 19:32:00,21.4,11.0,30.02,NW,325,22.0,23.0,65,0.00,,,0.00,0,weatherlink.com 1.10,2013-02-22 00:32:00,
2013-02-21 19:46:00,21.4,11.0,30.03,WNW,289,11.0,19.0,65,0.00,,,0.00,0,weatherlink.com 1.10,2013-02-22 00:46:00,
2013-02-21 20:02:00,21.6,11.0,30.03,NNW,333,8.0,20.0,65,0.00,,,0.00,0,weatherlink.com 1.10,2013-02-22 01:02:00,
2013-02-21 20:16:00,21.6,12.0,30.04,WNW,290,12.0,22.0,66,0.00,,,0.00,0,weatherlink.com 1.10,2013-02-22 01:16:00,
2013-02-21 20:31:00,21.6,12.0,30.05,NW,314,12.0,14.0,66,0.00,,,0.00,0,weatherlink.com 1.10,2013-02-22 01:31:00,
2013-02-21 20:47:00,21.8,12.0,30.06,NW,306,5.0,16.0,66,0.00,,,0.00,0,weatherlink.com 1.10,2013-02-22 01:47:00,
2013-02-21 21:01:00,21.9,12.0,30.06,NW,304,10.0,18.0,66,0.00,,,0.00,0,weatherlink.com 1.10,2013-02-22 02:01:00,
2013-02-21 21:16:00,21.9,12.0,30.07,WNW,284,9.0,19.0,67,0.00,,,0.00,0,weatherlink.com 1.10,2013-02-22 02:16:00,
2013-02-21 21:31:00,21.6,12.0,30.08,WNW,295,8.0,16.0,67,0.00,,,0.00,0,weatherlink.com 1.10,2013-02-22 02:31:00,
2013-02-21 21:46:00,21.6,13.0,30.08,WNW,283,4.0,16.0,68,0.00,,,0.00,0,weatherlink.com 1.10,2013-02-22 02:46:00,
2013-02-21 22:01:00,21.4,12.0,30.07,WNW,301,0.0,12.0,68,0.00,,,0.00,0,weatherlink.com 1.10,2013-02-22 03:01:00,
2013-02-21 22:16:00,21.3,12.0,30.08,NW,307,5.0,8.0,68,0.00,,,0.00,0,weatherlink.com 1.10,2013-02-22 03:16:00,
2013-02-21 22:32:00,20.8,12.0,30.08,WNW,289,3.0,9.0,69,0.00,,,0.00,0,weatherlink.com 1.10,2013-02-22 03:32:00,
2013-02-21 22:46:00,20.5,12.0,30.11,WNW,300,9.0,14.0,71,0.00,,,0.00,0,weatherlink.com 1.10,2013-02-22 03:46:00,
2013-02-21 23:16:00,21.3,13.0,30.12,WNW,297,6.0,11.0,71,0.00,,,0.00,0,weatherlink.com 1.10,2013-02-22 04:16:00,
2013-02-21 23:32:00,21.1,13.0,30.14,WNW,292,12.0,12.0,71,0.00,,,0.00,0,weatherlink.com 1.10,2013-02-22 04:32:00,